Time;durP1;ratioP1;P1;durP2;ratioP2;P2;SDS_P1;SDS_P2;PMS_P1;PMS_P2;Temp;Humidity;BMP_temperature;BMP_pressure;BME280_temperature;BME280_humidity;BME280_pressure;Samples;Min_cycle;Max_cycle;Signal;HPM_P1;HPM_P2
2023/12/30 00:02:05;;;;;;;6.00;4.40;;;9.10;99.90;;;;;;5033755;28;20167;-71
2023/12/30 00:04:31;;;;;;;4.60;4.20;;;9.20;99.90;;;;;;5033920;28;20531;-71
2023/12/30 00:06:57;;;;;;;4.97;4.00;;;9.20;99.90;;;;;;5033436;28;20247;-72
2023/12/30 00:09:22;;;;;;;8.67;4.10;;;9.20;99.90;;;;;;5033596;28;20178;-71
2023/12/30 00:11:48;;;;;;;9.67;4.13;;;9.20;99.90;;;;;;5034629;28;20168;-71
2023/12/30 00:14:14;;;;;;;11.63;4.60;;;9.20;56.00;;;;;;5033583;28;20278;-71
2023/12/30 00:16:41;;;;;;;5.67;4.03;;;9.30;1.00;;;;;;5033074;28;20202;-72
2023/12/30 00:19:07;;;;;;;8.80;5.40;;;9.40;1.00;;;;;;5033398;28;20199;-72
2023/12/30 00:21:33;;;;;;;9.17;4.40;;;9.40;99.90;;;;;;5033066;28;20258;-71
2023/12/30 00:23:58;;;;;;;9.23;4.40;;;9.50;99.90;;;;;;5033308;28;20203;-73
2023/12/30 00:26:25;;;;;;;7.70;4.63;;;9.60;99.90;;;;;;5044193;28;20252;-72
2023/12/30 00:28:52;;;;;;;9.97;3.97;;;9.60;1.00;;;;;;5053567;28;20221;-72
2023/12/30 00:31:27;;;;;;;13.17;4.67;;;9.70;11.90;;;;;;5053241;28;20193;-72
2023/12/30 00:33:58;;;;;;;13.00;4.37;;;9.70;1.00;;;;;;5053296;28;20186;-72
2023/12/30 00:36:24;;;;;;;9.87;4.20;;;9.60;1.00;;;;;;5052641;28;20214;-72
2023/12/30 00:38:53;;;;;;;8.20;4.50;;;9.60;99.90;;;;;;5053186;28;20624;-71
2023/12/30 00:41:18;;;;;;;13.93;4.40;;;9.50;99.90;;;;;;5033629;28;20176;-71
2023/12/30 00:43:44;;;;;;;10.33;4.33;;;9.60;1.00;;;;;;5032990;28;20225;-71
2023/12/30 00:46:09;;;;;;;9.17;4.67;;;9.50;99.90;;;;;;5032758;28;20195;-71
2023/12/30 00:48:35;;;;;;;11.23;4.40;;;9.30;1.00;;;;;;5033031;28;20175;-72
2023/12/30 00:51:01;;;;;;;12.47;5.97;;;9.20;99.90;;;;;;5045217;28;20278;-72
2023/12/30 00:53:28;;;;;;;8.03;5.03;;;9.10;99.90;;;;;;5052882;28;20631;-72
2023/12/30 00:55:54;;;;;;;9.50;4.53;;;9.00;99.90;;;;;;5050982;28;20685;-71
2023/12/30 00:58:23;;;;;;;10.30;4.60;;;9.00;99.90;;;;;;5052574;28;20206;-71
2023/12/30 01:00:50;;;;;;;12.37;4.50;;;8.90;99.90;;;;;;5052789;28;20521;-72
2023/12/30 01:03:16;;;;;;;15.03;4.97;;;8.90;99.90;;;;;;5052889;28;20255;-72
2023/12/30 01:05:42;;;;;;;12.63;5.33;;;8.90;99.90;;;;;;5052968;28;20206;-72
2023/12/30 01:08:08;;;;;;;8.40;4.07;;;8.90;99.90;;;;;;5054803;28;20185;-72
2023/12/30 01:10:33;;;;;;;6.27;4.53;;;9.00;99.90;;;;;;5050599;28;20183;-72
2023/12/30 01:12:59;;;;;;;10.27;4.23;;;9.00;99.90;;;;;;5041621;28;20278;-71
2023/12/30 01:15:25;;;;;;;11.80;4.83;;;9.10;99.90;;;;;;5051997;28;20206;-72
2023/12/30 01:17:50;;;;;;;9.63;4.50;;;9.10;99.90;;;;;;5052013;28;20256;-71
2023/12/30 01:20:16;;;;;;;8.77;4.90;;;9.10;99.90;;;;;;5052061;28;20178;-72
2023/12/30 01:22:41;;;;;;;7.50;4.10;;;9.10;99.90;;;;;;5052075;28;20652;-70
2023/12/30 01:25:08;;;;;;;8.30;4.17;;;9.10;99.90;;;;;;5051779;28;20195;-71
2023/12/30 01:27:34;;;;;;;11.63;4.30;;;9.20;99.90;;;;;;5045047;28;20262;-71
2023/12/30 01:29:59;;;;;;;11.97;4.60;;;9.20;99.90;;;;;;5034632;28;20884;-71
2023/12/30 01:32:25;;;;;;;11.10;5.13;;;9.20;99.90;;;;;;5051953;28;20199;-71
2023/12/30 01:34:50;;;;;;;10.97;5.03;;;9.20;99.90;;;;;;5051845;28;20209;-71
2023/12/30 01:37:16;;;;;;;10.00;4.37;;;9.20;99.90;;;;;;5051831;28;20205;-71
2023/12/30 01:39:42;;;;;;;10.30;4.73;;;9.10;99.90;;;;;;5051765;28;20166;-71
2023/12/30 01:42:07;;;;;;;10.80;4.33;;;9.10;99.90;;;;;;5040293;28;20261;-71
2023/12/30 01:44:33;;;;;;;9.67;4.40;;;9.10;99.90;;;;;;5032530;28;20190;-71
2023/12/30 01:46:59;;;;;;;8.00;4.10;;;9.10;99.90;;;;;;5014717;28;20179;-72
2023/12/30 01:49:25;;;;;;;7.70;4.60;;;9.00;99.90;;;;;;5032048;28;20607;-71
2023/12/30 01:51:52;;;;;;;10.03;4.07;;;9.00;99.90;;;;;;5032031;28;20176;-71
2023/12/30 01:54:20;;;;;;;10.37;4.47;;;9.00;99.90;;;;;;5031938;28;20222;-71
2023/12/30 01:56:49;;;;;;;17.30;4.93;;;9.10;99.90;;;;;;5032223;28;20179;-71
2023/12/30 01:59:16;;;;;;;12.67;4.43;;;9.20;99.90;;;;;;5031693;28;20203;-71
2023/12/30 02:01:43;;;;;;;8.37;4.03;;;9.20;99.90;;;;;;5031842;28;20643;-72
2023/12/30 02:04:08;;;;;;;5.73;4.43;;;9.30;99.90;;;;;;5031655;28;20639;-71
2023/12/30 02:06:34;;;;;;;9.00;4.47;;;9.30;99.90;;;;;;5031501;28;20282;-72
2023/12/30 02:09:02;;;;;;;8.77;4.00;;;9.20;99.90;;;;;;5031594;28;20186;-71
2023/12/30 02:11:27;;;;;;;6.37;4.30;;;9.10;99.90;;;;;;5032283;28;20651;-71
2023/12/30 02:13:53;;;;;;;7.77;4.30;;;9.00;99.90;;;;;;5031852;28;20187;-72
2023/12/30 02:16:19;;;;;;;5.77;4.10;;;8.90;99.90;;;;;;5036238;28;20252;-71
2023/12/30 02:18:45;;;;;;;5.70;4.00;;;8.90;99.90;;;;;;5051340;28;20206;-71
2023/12/30 02:21:10;;;;;;;8.87;3.90;;;8.80;99.90;;;;;;5051002;28;20178;-72
2023/12/30 02:23:36;;;;;;;13.30;5.00;;;8.80;99.90;;;;;;5044979;28;20534;-71
2023/12/30 02:26:01;;;;;;;6.03;3.80;;;8.80;99.90;;;;;;5032131;28;20191;-72
2023/12/30 02:28:27;;;;;;;7.73;4.00;;;8.80;99.90;;;;;;5031465;28;20183;-71
2023/12/30 02:30:52;;;;;;;10.03;4.00;;;8.80;99.90;;;;;;5033567;28;20655;-72
2023/12/30 02:33:18;;;;;;;12.67;4.93;;;8.80;99.90;;;;;;5033244;28;20171;-72
2023/12/30 02:35:44;;;;;;;8.93;4.30;;;8.80;99.90;;;;;;5030738;28;20199;-72
2023/12/30 02:38:09;;;;;;;10.60;4.40;;;8.80;99.90;;;;;;5032459;28;20199;-71
2023/12/30 02:40:35;;;;;;;9.60;4.60;;;8.90;99.90;;;;;;5050620;28;20198;-71
2023/12/30 02:43:01;;;;;;;6.97;4.07;;;8.90;99.90;;;;;;5050836;28;20170;-72
2023/12/30 02:45:26;;;;;;;8.17;4.20;;;8.90;99.90;;;;;;5050586;28;20194;-71
2023/12/30 02:47:52;;;;;;;11.07;5.33;;;8.90;99.90;;;;;;5050954;28;20261;-71
2023/12/30 02:50:18;;;;;;;11.87;4.47;;;8.90;99.90;;;;;;5032840;28;20194;-71
2023/12/30 02:52:43;;;;;;;13.20;4.80;;;8.90;99.90;;;;;;5044711;28;20761;-72
2023/12/30 02:55:09;;;;;;;6.17;4.20;;;9.00;99.90;;;;;;5030719;28;20230;-71
2023/12/30 02:57:34;;;;;;;8.73;4.40;;;9.00;99.90;;;;;;5030653;28;20195;-72
2023/12/30 03:00:00;;;;;;;10.47;4.50;;;9.00;99.90;;;;;;5032195;28;20253;-71
2023/12/30 03:02:25;;;;;;;9.50;4.33;;;9.00;99.90;;;;;;5050725;28;20174;-72
2023/12/30 03:04:51;;;;;;;7.10;4.90;;;9.00;99.90;;;;;;5052034;28;20222;-71
2023/12/30 03:07:17;;;;;;;9.37;4.43;;;9.00;99.90;;;;;;5043935;28;20187;-71
2023/12/30 03:09:43;;;;;;;7.73;5.00;;;9.00;99.90;;;;;;5034959;28;20643;-72
2023/12/30 03:12:09;;;;;;;8.23;4.53;;;9.00;99.90;;;;;;5034713;28;20252;-71
2023/12/30 03:14:35;;;;;;;10.13;4.30;;;9.00;99.90;;;;;;5034631;28;20573;-71
2023/12/30 03:17:01;;;;;;;7.00;4.40;;;8.90;99.90;;;;;;5016494;28;20206;-71
2023/12/30 03:19:26;;;;;;;8.27;5.73;;;8.90;99.90;;;;;;5034683;28;20172;-71
2023/12/30 03:21:53;;;;;;;11.97;4.00;;;8.90;99.90;;;;;;5048636;28;20201;-72
2023/12/30 03:24:19;;;;;;;6.73;4.40;;;8.80;99.90;;;;;;5054538;28;20167;-71
2023/12/30 03:26:44;;;;;;;12.13;4.77;;;8.70;99.90;;;;;;5054218;28;20163;-71
2023/12/30 03:29:10;;;;;;;8.70;4.37;;;8.70;99.90;;;;;;5054615;28;20205;-72
2023/12/30 03:31:36;;;;;;;8.67;4.67;;;8.70;99.90;;;;;;5054262;28;20179;-71
2023/12/30 03:34:01;;;;;;;9.63;4.37;;;8.80;99.90;;;;;;5054339;28;20167;-71
2023/12/30 03:36:27;;;;;;;12.17;4.47;;;8.80;99.90;;;;;;5034759;28;20314;-71
2023/12/30 03:38:53;;;;;;;7.97;4.70;;;8.90;99.90;;;;;;5034060;28;20238;-72
2023/12/30 03:41:20;;;;;;;16.80;5.13;;;8.90;99.90;;;;;;5034154;28;20172;-71
2023/12/30 03:43:47;;;;;;;11.33;4.40;;;9.00;99.90;;;;;;5044748;28;20630;-71
2023/12/30 03:46:13;;;;;;;7.50;3.97;;;9.00;99.90;;;;;;5039022;28;20195;-71
2023/12/30 03:48:38;;;;;;;10.37;4.50;;;9.00;99.90;;;;;;5037511;28;20545;-71
2023/12/30 03:51:05;;;;;;;12.30;4.20;;;9.00;99.90;;;;;;5054235;28;20193;-71
2023/12/30 03:53:32;;;;;;;11.90;4.37;;;9.00;99.90;;;;;;5054965;28;20605;-71
2023/12/30 03:55:57;;;;;;;10.00;4.30;;;9.00;99.90;;;;;;5051771;28;20289;-71
2023/12/30 03:58:23;;;;;;;9.60;4.50;;;8.90;99.90;;;;;;5053760;28;20277;-71
2023/12/30 04:00:48;;;;;;;7.50;4.77;;;8.90;99.90;;;;;;5046490;28;20168;-71
2023/12/30 04:03:14;;;;;;;13.00;4.60;;;8.90;99.90;;;;;;5041605;28;20216;-72
2023/12/30 04:05:40;;;;;;;8.47;4.53;;;8.90;99.90;;;;;;5053510;28;20195;-71
2023/12/30 04:08:06;;;;;;;12.00;5.17;;;8.80;99.90;;;;;;5053835;28;20493;-71
2023/12/30 04:10:32;;;;;;;9.87;4.83;;;8.70;99.90;;;;;;5052741;28;20658;-72
2023/12/30 04:12:57;;;;;;;16.03;4.33;;;8.70;99.90;;;;;;5033602;28;20211;-71
2023/12/30 04:15:23;;;;;;;11.70;4.97;;;8.70;99.90;;;;;;5051401;28;20203;-71
2023/12/30 04:17:49;;;;;;;11.63;4.30;;;8.70;99.90;;;;;;5039687;28;20191;-70
2023/12/30 04:20:14;;;;;;;11.57;4.83;;;8.70;99.90;;;;;;5033499;28;20604;-71
2023/12/30 04:22:40;;;;;;;11.40;4.80;;;8.70;99.90;;;;;;5032989;28;20188;-70
2023/12/30 04:25:06;;;;;;;11.10;5.20;;;8.70;99.90;;;;;;5032922;28;20202;-71
2023/12/30 04:27:32;;;;;;;9.50;4.40;;;8.60;99.90;;;;;;5033206;28;20240;-71
2023/12/30 04:29:57;;;;;;;10.03;4.97;;;8.60;99.90;;;;;;5033258;28;20265;-71
2023/12/30 04:32:24;;;;;;;15.07;5.37;;;8.60;99.90;;;;;;5048834;28;20199;-71
2023/12/30 04:34:51;;;;;;;14.07;5.00;;;8.60;99.90;;;;;;5052975;28;20214;-71
2023/12/30 04:37:17;;;;;;;10.83;5.17;;;8.50;99.90;;;;;;5052705;28;20216;-71
2023/12/30 04:39:42;;;;;;;13.97;4.77;;;8.50;99.90;;;;;;5052985;28;20234;-71
2023/12/30 04:42:08;;;;;;;9.67;4.33;;;8.50;99.90;;;;;;5052897;28;20163;-70
2023/12/30 04:44:33;;;;;;;20.77;5.93;;;8.50;99.90;;;;;;5051021;28;20167;-71
2023/12/30 04:46:59;;;;;;;11.47;5.97;;;8.40;99.90;;;;;;5032437;28;20167;-70
2023/12/30 04:49:25;;;;;;;12.53;5.43;;;8.30;99.90;;;;;;5032958;28;20175;-70
2023/12/30 04:51:50;;;;;;;15.33;5.20;;;8.30;99.90;;;;;;5032716;28;20168;-70
2023/12/30 04:54:16;;;;;;;18.73;5.37;;;8.20;99.90;;;;;;5033882;28;20211;-70
2023/12/30 04:56:41;;;;;;;18.73;5.37;;;8.10;99.90;;;;;;5032161;28;20199;-70
2023/12/30 04:59:09;;;;;;;13.63;5.50;;;8.10;99.90;;;;;;5038054;28;20702;-70
2023/12/30 05:01:35;;;;;;;11.60;4.90;;;8.10;99.90;;;;;;5052514;28;20238;-70
2023/12/30 05:04:02;;;;;;;14.50;5.87;;;8.00;99.90;;;;;;5052421;28;20690;-70
2023/12/30 05:06:29;;;;;;;13.13;5.00;;;8.00;99.90;;;;;;5052232;28;20246;-70
2023/12/30 05:08:55;;;;;;;15.87;4.90;;;8.10;99.90;;;;;;5052492;28;20167;-71
2023/12/30 05:11:23;;;;;;;15.80;5.60;;;8.10;99.90;;;;;;5052297;28;20178;-70
2023/12/30 05:13:49;;;;;;;12.60;5.40;;;8.10;99.90;;;;;;5041043;28;20183;-71
2023/12/30 05:16:15;;;;;;;14.77;5.33;;;8.10;99.90;;;;;;5032263;28;20203;-70
2023/12/30 05:18:41;;;;;;;11.33;5.40;;;8.10;99.90;;;;;;5034249;28;20195;-70
2023/12/30 05:21:16;;;;;;;17.77;4.60;;;8.10;99.90;;;;;;5014378;28;20183;-70
2023/12/30 05:23:42;;;;;;;11.57;4.87;;;8.10;99.90;;;;;;5032082;28;20191;-70
2023/12/30 05:26:09;;;;;;;11.13;5.60;;;8.00;99.90;;;;;;5031802;28;20188;-70
2023/12/30 05:28:35;;;;;;;16.20;5.77;;;8.00;99.90;;;;;;5048506;28;20536;-71
2023/12/30 05:31:00;;;;;;;11.07;4.83;;;7.90;99.90;;;;;;5052181;28;20174;-70
2023/12/30 05:33:27;;;;;;;9.30;4.90;;;7.90;99.90;;;;;;5052035;28;20179;-70
2023/12/30 05:35:52;;;;;;;11.60;5.17;;;7.80;99.90;;;;;;5051833;28;20191;-71
2023/12/30 05:38:18;;;;;;;15.10;4.63;;;7.80;99.90;;;;;;5051873;28;20273;-71
2023/12/30 05:40:43;;;;;;;8.67;4.90;;;7.80;99.90;;;;;;5034855;28;21171;-71
2023/12/30 05:43:09;;;;;;;13.33;5.10;;;7.70;99.90;;;;;;5031797;28;20171;-71
2023/12/30 05:45:35;;;;;;;7.67;4.97;;;7.80;99.90;;;;;;5031785;28;20695;-71
2023/12/30 05:48:02;;;;;;;15.80;5.53;;;7.80;99.90;;;;;;5039887;28;20170;-71
2023/12/30 05:50:27;;;;;;;10.20;5.30;;;7.90;99.90;;;;;;5051755;28;20212;-71
2023/12/30 05:52:53;;;;;;;16.03;5.07;;;7.90;99.90;;;;;;5049758;28;20654;-71
2023/12/30 05:55:19;;;;;;;13.40;5.60;;;8.00;99.90;;;;;;5031465;28;20195;-71
2023/12/30 05:57:46;;;;;;;18.73;5.90;;;8.00;99.90;;;;;;5031888;28;20191;-71
2023/12/30 06:00:13;;;;;;;11.67;5.30;;;7.90;99.90;;;;;;5031856;28;20600;-71
2023/12/30 06:02:40;;;;;;;12.33;6.00;;;8.00;99.90;;;;;;5013789;28;20286;-71
2023/12/30 06:05:06;;;;;;;11.57;5.77;;;8.00;99.90;;;;;;5032039;28;20188;-71
2023/12/30 06:07:31;;;;;;;11.53;4.77;;;8.00;99.90;;;;;;5037750;28;20206;-71
2023/12/30 06:09:57;;;;;;;13.57;5.40;;;8.10;99.90;;;;;;5051643;28;20174;-71
2023/12/30 06:12:22;;;;;;;6.57;5.03;;;8.10;99.90;;;;;;5051577;28;20541;-71
2023/12/30 06:14:48;;;;;;;9.93;5.53;;;8.10;99.90;;;;;;5051147;28;20485;-71
2023/12/30 06:17:14;;;;;;;8.30;5.00;;;8.10;99.90;;;;;;5051139;28;20569;-71
2023/12/30 06:19:39;;;;;;;16.10;6.20;;;8.10;99.90;;;;;;5051462;28;20529;-71
2023/12/30 06:22:06;;;;;;;11.97;5.50;;;8.20;99.90;;;;;;5040555;28;20479;-71
2023/12/30 06:24:33;;;;;;;5.60;4.77;;;8.30;99.90;;;;;;5031415;28;20163;-71
2023/12/30 06:26:59;;;;;;;14.67;4.80;;;8.30;99.90;;;;;;5031335;28;20202;-71
2023/12/30 06:29:26;;;;;;;13.17;5.17;;;8.40;99.90;;;;;;5031340;28;20179;-71
2023/12/30 06:31:53;;;;;;;14.03;5.00;;;8.40;99.90;;;;;;5031369;28;20275;-72
2023/12/30 06:34:18;;;;;;;12.93;5.23;;;8.50;99.90;;;;;;5032832;28;20215;-71
2023/12/30 06:36:45;;;;;;;9.03;5.20;;;8.60;99.90;;;;;;5051344;28;20257;-71
2023/12/30 06:39:16;;;;;;;14.87;5.50;;;8.60;99.90;;;;;;5052017;28;20191;-71
2023/12/30 06:41:41;;;;;;;10.13;4.80;;;8.70;99.90;;;;;;5057980;28;20159;-71
2023/12/30 06:44:08;;;;;;;10.17;4.87;;;8.70;99.90;;;;;;5055285;28;20171;-71
2023/12/30 06:46:34;;;;;;;11.00;5.00;;;8.80;99.90;;;;;;5054907;28;20187;-71
2023/12/30 06:49:00;;;;;;;9.77;5.30;;;8.80;99.90;;;;;;5048473;28;20198;-70
2023/12/30 06:51:26;;;;;;;15.57;5.70;;;8.90;99.90;;;;;;5035233;28;20175;-70
2023/12/30 06:53:52;;;;;;;16.10;5.70;;;8.90;99.90;;;;;;5034978;28;20234;-70
2023/12/30 06:56:18;;;;;;;12.00;5.00;;;8.90;99.90;;;;;;5035215;28;20241;-70
2023/12/30 06:58:45;;;;;;;15.10;5.20;;;8.90;99.90;;;;;;5052684;28;20669;-71
2023/12/30 07:01:11;;;;;;;9.00;4.90;;;8.90;99.90;;;;;;5055110;28;20167;-70
2023/12/30 07:03:37;;;;;;;12.97;5.40;;;9.00;99.90;;;;;;5047772;28;20224;-70
2023/12/30 07:06:03;;;;;;;9.30;4.80;;;8.90;99.90;;;;;;5041902;28;20281;-71
2023/12/30 07:08:28;;;;;;;9.93;4.83;;;9.00;99.90;;;;;;5034929;28;20171;-71
2023/12/30 07:10:54;;;;;;;8.00;4.20;;;8.90;99.90;;;;;;5034776;28;20179;-71
2023/12/30 07:13:20;;;;;;;12.50;4.03;;;9.00;99.90;;;;;;5034918;28;20194;-70
2023/12/30 07:15:47;;;;;;;12.73;4.60;;;8.90;99.90;;;;;;5034454;28;20193;-70
2023/12/30 07:18:13;;;;;;;8.33;4.70;;;9.00;99.90;;;;;;5034690;28;20503;-70
2023/12/30 07:20:38;;;;;;;9.20;4.33;;;8.90;99.90;;;;;;5045416;28;20594;-70
2023/12/30 07:23:05;;;;;;;10.73;4.67;;;8.90;99.90;;;;;;5049732;28;20209;-70
2023/12/30 07:25:31;;;;;;;9.07;4.40;;;8.80;99.90;;;;;;5034251;28;20259;-71
2023/12/30 07:27:56;;;;;;;8.60;4.60;;;8.80;99.90;;;;;;5034542;28;20195;-71
2023/12/30 07:30:22;;;;;;;11.23;4.27;;;8.80;99.90;;;;;;5034823;28;20180;-71
2023/12/30 07:32:48;;;;;;;10.30;4.50;;;8.70;99.90;;;;;;5052774;28;20540;-71
2023/12/30 07:35:13;;;;;;;8.83;4.10;;;8.70;99.90;;;;;;5053914;28;20202;-71
2023/12/30 07:37:39;;;;;;;13.07;5.00;;;8.70;99.90;;;;;;5053900;28;20204;-70
2023/12/30 07:40:06;;;;;;;12.83;4.67;;;8.70;99.90;;;;;;5054305;28;20189;-70
2023/12/30 07:42:32;;;;;;;9.67;4.90;;;8.70;99.90;;;;;;5054051;28;20198;-71
2023/12/30 07:44:57;;;;;;;6.07;4.57;;;8.70;99.90;;;;;;5053605;28;20221;-71
2023/12/30 07:47:25;;;;;;;9.60;4.47;;;8.70;99.90;;;;;;5052194;28;20243;-70
2023/12/30 07:49:50;;;;;;;7.73;4.20;;;8.80;99.90;;;;;;5053620;28;20193;-71
2023/12/30 07:52:16;;;;;;;9.47;4.50;;;8.80;99.90;;;;;;5053505;28;20262;-71
2023/12/30 07:54:42;;;;;;;10.30;5.17;;;8.90;99.90;;;;;;5053584;28;20225;-71
2023/12/30 07:57:07;;;;;;;9.80;4.70;;;8.80;99.90;;;;;;5051903;28;20178;-71
2023/12/30 07:59:33;;;;;;;15.57;4.87;;;8.90;99.90;;;;;;5053683;28;20674;-72
2023/12/30 08:01:58;;;;;;;11.37;4.23;;;8.80;99.90;;;;;;5054756;28;20159;-71
2023/12/30 08:04:24;;;;;;;14.77;5.10;;;8.80;99.90;;;;;;5043225;28;20547;-71
2023/12/30 08:06:50;;;;;;;10.17;4.93;;;8.80;99.90;;;;;;5033954;28;20176;-71
2023/12/30 08:09:16;;;;;;;12.33;4.93;;;8.80;99.90;;;;;;5033884;28;20172;-71
2023/12/30 08:11:42;;;;;;;8.20;4.37;;;8.80;99.90;;;;;;5033351;28;20202;-71
2023/12/30 08:14:09;;;;;;;11.10;4.43;;;8.80;99.90;;;;;;5033502;28;20180;-71
2023/12/30 08:16:36;;;;;;;16.13;5.47;;;8.80;99.90;;;;;;5033041;28;20199;-72
2023/12/30 08:19:04;;;;;;;16.00;4.93;;;8.90;99.90;;;;;;5045650;28;20256;-70
2023/12/30 08:21:31;;;;;;;8.37;5.10;;;8.90;99.90;;;;;;5053011;28;20584;-70
2023/12/30 08:23:58;;;;;;;18.13;5.60;;;8.90;99.90;;;;;;5052804;28;20533;-70
2023/12/30 08:26:25;;;;;;;10.00;4.87;;;8.90;99.90;;;;;;5033398;28;20359;-70
2023/12/30 08:28:51;;;;;;;11.30;4.47;;;8.90;99.90;;;;;;5033101;28;20557;-70
2023/12/30 08:31:17;;;;;;;8.33;4.87;;;9.00;99.90;;;;;;5033169;28;20652;-71
2023/12/30 08:33:43;;;;;;;8.53;4.50;;;9.00;99.90;;;;;;5015076;28;20179;-70
2023/12/30 08:36:09;;;;;;;10.63;4.70;;;9.00;99.90;;;;;;5033026;28;20566;-71
2023/12/30 08:38:35;;;;;;;10.67;5.03;;;9.10;99.90;;;;;;5032521;28;20203;-70
2023/12/30 08:41:01;;;;;;;9.40;4.93;;;9.10;99.90;;;;;;5034125;28;20190;-70
2023/12/30 08:43:28;;;;;;;11.73;4.77;;;9.20;99.90;;;;;;5032942;28;20266;-70
2023/12/30 08:45:53;;;;;;;11.30;4.73;;;9.20;99.90;;;;;;5032384;28;20217;-70
2023/12/30 08:48:19;;;;;;;9.30;4.90;;;9.20;99.90;;;;;;5033237;28;20270;-70
2023/12/30 08:50:44;;;;;;;13.20;4.80;;;9.30;99.90;;;;;;5032536;28;20264;-69
2023/12/30 08:53:11;;;;;;;10.80;4.90;;;9.30;99.90;;;;;;5044637;28;20632;-70
2023/12/30 08:55:36;;;;;;;10.37;4.60;;;9.40;99.90;;;;;;5052561;28;20635;-70
2023/12/30 08:58:02;;;;;;;9.50;4.90;;;9.40;99.90;;;;;;5052722;28;20194;-70
2023/12/30 09:00:28;;;;;;;9.50;5.07;;;9.30;99.90;;;;;;5052706;28;20229;-70
2023/12/30 09:02:55;;;;;;;15.67;4.97;;;9.40;99.90;;;;;;5051694;28;20171;-71
2023/12/30 09:05:21;;;;;;;16.27;5.07;;;9.40;99.90;;;;;;5051924;28;20266;-70
2023/12/30 09:07:48;;;;;;;15.27;5.37;;;9.40;99.90;;;;;;5048675;28;20182;-71
2023/12/30 09:10:18;;;;;;;13.33;5.53;;;9.50;99.90;;;;;;5034666;28;20266;-70
2023/12/30 09:12:47;;;;;;;10.80;4.53;;;9.50;99.90;;;;;;5051792;28;20205;-70
2023/12/30 09:15:13;;;;;;;9.47;4.30;;;9.50;99.90;;;;;;5052076;28;20218;-71
2023/12/30 09:17:38;;;;;;;7.73;4.67;;;9.60;99.90;;;;;;5051217;28;20276;-69
2023/12/30 09:20:05;;;;;;;9.60;4.40;;;9.60;99.90;;;;;;5033169;28;20622;-70
2023/12/30 09:22:30;;;;;;;16.10;4.80;;;9.70;99.90;;;;;;5031829;28;20187;-70
2023/12/30 09:24:56;;;;;;;11.70;4.10;;;9.80;99.90;;;;;;5037161;28;20581;-69
2023/12/30 09:27:22;;;;;;;15.27;4.97;;;9.80;99.90;;;;;;5052556;28;20173;-71
2023/12/30 09:29:48;;;;;;;16.67;5.57;;;9.80;99.90;;;;;;5052020;28;20171;-69
2023/12/30 09:32:15;;;;;;;9.57;4.77;;;9.80;99.90;;;;;;5051836;28;20167;-70
2023/12/30 09:34:40;;;;;;;12.83;4.80;;;9.90;99.90;;;;;;5051526;28;20183;-70
2023/12/30 09:37:06;;;;;;;8.30;4.07;;;10.00;99.90;;;;;;5032816;28;20558;-69
2023/12/30 09:39:32;;;;;;;11.47;4.60;;;10.00;99.90;;;;;;5041542;28;20246;-71
2023/12/30 09:41:57;;;;;;;8.30;4.43;;;10.00;99.90;;;;;;5051687;28;20217;-70
2023/12/30 09:44:25;;;;;;;9.23;4.40;;;10.10;99.90;;;;;;5051748;28;20167;-70
2023/12/30 09:46:52;;;;;;;10.20;4.27;;;10.10;99.90;;;;;;5051187;28;20171;-70
2023/12/30 09:49:19;;;;;;;12.37;5.00;;;10.10;99.90;;;;;;5044280;28;20234;-70
2023/12/30 09:51:45;;;;;;;8.90;4.50;;;10.10;99.90;;;;;;5038045;28;20183;-70
2023/12/30 09:54:10;;;;;;;9.93;4.50;;;10.10;99.90;;;;;;5033895;28;20539;-70
2023/12/30 09:56:36;;;;;;;7.00;4.50;;;10.10;99.90;;;;;;5031384;28;20226;-69
2023/12/30 09:59:02;;;;;;;12.23;5.00;;;10.10;99.90;;;;;;5036384;28;20213;-70
2023/12/30 10:01:30;;;;;;;12.03;4.60;;;10.20;99.90;;;;;;5051182;28;20171;-70
2023/12/30 10:03:55;;;;;;;15.40;5.07;;;10.20;99.90;;;;;;5051129;28;20167;-70
2023/12/30 10:06:23;;;;;;;11.47;4.10;;;10.30;99.90;;;;;;5033350;28;20209;-70
2023/12/30 10:08:49;;;;;;;11.30;4.90;;;10.40;99.90;;;;;;5050733;28;20179;-71
2023/12/30 10:11:15;;;;;;;11.17;4.83;;;10.50;99.90;;;;;;5051610;28;20167;-70
2023/12/30 10:13:41;;;;;;;9.27;4.53;;;10.50;99.90;;;;;;5049109;28;20183;-71
2023/12/30 10:16:08;;;;;;;7.50;4.63;;;10.50;99.90;;;;;;5051144;28;20202;-70
2023/12/30 10:18:37;;;;;;;11.40;4.77;;;10.40;99.90;;;;;;5049531;28;20310;-70
2023/12/30 10:21:04;;;;;;;11.30;5.13;;;10.50;99.90;;;;;;5048212;28;20195;-71
2023/12/30 10:23:34;;;;;;;11.37;4.43;;;10.50;99.90;;;;;;5051105;28;20170;-71
2023/12/30 10:26:01;;;;;;;14.40;4.60;;;10.50;99.90;;;;;;5051038;28;20194;-71
2023/12/30 10:28:27;;;;;;;10.03;4.83;;;10.50;99.90;;;;;;5051471;28;20179;-70
2023/12/30 10:31:03;;;;;;;10.73;4.80;;;10.50;99.90;;;;;;5051064;28;20201;-70
2023/12/30 10:33:30;;;;;;;12.03;4.20;;;10.50;99.90;;;;;;5049450;28;20308;-69
2023/12/30 10:35:56;;;;;;;9.27;4.50;;;10.50;99.90;;;;;;5032528;28;20233;-70
2023/12/30 10:38:22;;;;;;;8.13;4.00;;;10.50;99.90;;;;;;5050646;28;20304;-70
2023/12/30 10:40:50;;;;;;;6.73;4.03;;;10.50;99.90;;;;;;5051054;28;20167;-70
2023/12/30 10:43:15;;;;;;;9.87;4.40;;;10.60;99.90;;;;;;5051559;28;20171;-70
2023/12/30 10:45:41;;;;;;;9.73;4.90;;;10.60;99.90;;;;;;5037772;28;20450;-70
2023/12/30 10:48:07;;;;;;;11.97;4.30;;;10.50;99.90;;;;;;5031657;28;20253;-70
2023/12/30 10:50:35;;;;;;;10.77;4.40;;;10.60;99.90;;;;;;5032077;28;20175;-70
2023/12/30 10:53:27;;;;;;;11.93;5.30;;;10.50;99.90;;;;;;5016180;28;20196;-71
2023/12/30 10:55:59;;;;;;;13.37;4.40;;;10.60;99.90;;;;;;5030709;28;20684;-70
2023/12/30 10:58:25;;;;;;;7.10;3.93;;;10.60;99.90;;;;;;5030901;28;20207;-70
2023/12/30 11:01:00;;;;;;;11.73;4.00;;;10.60;99.90;;;;;;5031330;28;20647;-70
2023/12/30 11:03:26;;;;;;;8.63;4.27;;;10.70;99.90;;;;;;5030767;28;20167;-71
2023/12/30 11:05:59;;;;;;;7.73;3.70;;;10.70;99.90;;;;;;5030229;28;20246;-70
2023/12/30 11:08:25;;;;;;;13.33;4.30;;;10.80;99.90;;;;;;5031024;28;20702;-70
2023/12/30 11:10:51;;;;;;;8.87;4.10;;;10.80;99.90;;;;;;5029186;28;20262;-70
2023/12/30 11:13:19;;;;;;;10.10;4.10;;;11.00;99.90;;;;;;5030900;28;20194;-70
2023/12/30 11:15:45;;;;;;;12.80;4.57;;;11.00;99.90;;;;;;5033826;28;20566;-71
2023/12/30 11:18:14;;;;;;;11.90;4.17;;;11.20;99.90;;;;;;5050944;28;20198;-70
2023/12/30 11:20:46;;;;;;;6.90;4.07;;;11.20;99.90;;;;;;5034356;28;20180;-70
2023/12/30 11:23:14;;;;;;;5.10;3.90;;;11.20;99.90;;;;;;5049695;28;20179;-70
2023/12/30 11:25:45;;;;;;;13.33;3.97;;;11.20;99.90;;;;;;5046552;28;20262;-69
2023/12/30 11:28:22;;;;;;;11.80;4.00;;;11.20;99.90;;;;;;5041909;28;20664;-70
2023/12/30 11:30:59;;;;;;;10.93;4.30;;;11.30;99.90;;;;;;5034697;28;20325;-71
2023/12/30 11:33:24;;;;;;;7.83;4.10;;;11.40;99.90;;;;;;5038568;28;20224;-70
2023/12/30 11:35:56;;;;;;;9.10;3.93;;;11.40;99.90;;;;;;5025568;28;20588;-70
2023/12/30 11:38:24;;;;;;;9.40;4.53;;;11.60;99.90;;;;;;5054535;28;20202;-69
2023/12/30 11:40:57;;;;;;;14.47;4.00;;;11.60;99.90;;;;;;5037473;28;20243;-70
2023/12/30 11:43:25;;;;;;;9.57;3.97;;;11.70;99.90;;;;;;5033972;28;20164;-70
2023/12/30 11:45:51;;;;;;;10.23;4.27;;;11.90;99.90;;;;;;5033958;28;20195;-70
2023/12/30 11:48:17;;;;;;;10.07;4.30;;;12.10;99.90;;;;;;5034411;28;20176;-70
2023/12/30 11:50:43;;;;;;;9.70;3.80;;;12.20;99.90;;;;;;5033847;28;20659;-71
2023/12/30 11:53:08;;;;;;;8.50;3.90;;;12.40;99.90;;;;;;5049336;28;20186;-71
2023/12/30 11:55:34;;;;;;;6.27;3.70;;;12.30;99.90;;;;;;5053152;28;20195;-71
2023/12/30 11:58:00;;;;;;;7.03;3.60;;;12.30;99.90;;;;;;5035379;28;20294;-71
2023/12/30 12:00:26;;;;;;;15.10;4.43;;;12.30;99.90;;;;;;5051683;28;20615;-70
2023/12/30 12:02:53;;;;;;;12.00;4.13;;;12.30;99.90;;;;;;5053103;28;20183;-71
2023/12/30 12:05:19;;;;;;;8.67;4.30;;;12.30;99.90;;;;;;5051006;28;20277;-71
2023/12/30 12:07:45;;;;;;;12.70;4.07;;;12.30;99.90;;;;;;5048057;28;20183;-71
2023/12/30 12:10:11;;;;;;;7.03;3.57;;;12.20;99.90;;;;;;5039248;28;20193;-70
2023/12/30 12:12:42;;;;;;;8.67;4.77;;;12.20;99.90;;;;;;5051922;28;20646;-71
2023/12/30 12:15:08;;;;;;;9.97;3.97;;;12.40;99.90;;;;;;5047609;28;20199;-71
2023/12/30 12:17:35;;;;;;;5.93;3.30;;;12.50;99.90;;;;;;5045805;28;20211;-71
2023/12/30 12:20:04;;;;;;;5.40;2.97;;;12.60;99.90;;;;;;5053274;28;20171;-71
2023/12/30 12:22:30;;;;;;;8.40;3.50;;;12.60;99.90;;;;;;5033849;28;20555;-71
2023/12/30 12:24:56;;;;;;;8.77;3.87;;;12.50;99.90;;;;;;5033017;28;20207;-70
2023/12/30 12:27:22;;;;;;;11.83;3.63;;;12.20;99.90;;;;;;5034053;28;20266;-70
2023/12/30 12:29:52;;;;;;;6.03;3.97;;;12.10;99.90;;;;;;5045566;28;20583;-71
2023/12/30 12:32:20;;;;;;;8.00;3.70;;;12.00;99.90;;;;;;5051535;28;20179;-71
2023/12/30 12:34:46;;;;;;;6.37;3.60;;;11.90;99.90;;;;;;5036236;28;20195;-70
2023/12/30 12:37:14;;;;;;;7.33;3.53;;;11.90;99.90;;;;;;5046719;28;20170;-70
2023/12/30 12:39:40;;;;;;;5.17;3.40;;;11.90;99.90;;;;;;5038123;28;20203;-70
2023/12/30 12:42:05;;;;;;;6.20;3.50;;;11.90;99.90;;;;;;5053148;28;20178;-70
2023/12/30 12:44:31;;;;;;;11.10;3.27;;;11.90;99.90;;;;;;5041966;28;20647;-71